Blue Oak Ranch Reserve, California Weather observations

Data are for 10 minute period ending at time listed.
 Day   Time   Solar   Ave.   Ave.  Ave.  Vector  Max.   Baro.   Total    
  of    of     Rad.   Air    Rel.  Wind   Wind   Wind  Press.  Precip.   
Year   Day            Temp.  Hum.  Speed  Dir.   Gust                    
2017   (PST)  Kw/m2    F      %     mph   deg.    mph    mb.     in.     
-------------------------------------------------------------------------
 146    0:00   0.00   50.0    89    1.7   146     4.3   943.6    0.00 
 146    0:10   0.00   50.0    89    1.6   151     4.4   943.7    0.00 
 146    0:20   0.00   49.9    89    2.3   150     5.1   943.7    0.00 
 146    0:30   0.00   49.8    89    2.9   149     5.6   943.7    0.00 
 146    0:40   0.00   49.7    90    2.9   156     6.5   943.8    0.00 
 146    0:50   0.00   49.7    89    2.9   174     4.9   943.8    0.00 
 146    1:00   0.00   49.7    89    3.3   168     6.2   943.8    0.00 
 146    1:10   0.00   49.7    89    2.0   177     5.8   943.8    0.00 
 146    1:20   0.00   49.7    89    1.9   168     4.2   943.8    0.00 
 146    1:30   0.00   49.7    89    2.6   164     8.5   943.8    0.00 
 146    1:40   0.00   49.4    89    4.1   162     8.6   943.8    0.00 
 146    1:50   0.00   49.3    89    2.4   169     6.4   943.8    0.00 
 146    2:00   0.00   49.3    88    3.4   170     7.8   943.9    0.00 
 146    2:10   0.00   49.3    88    2.3   175     6.3   943.9    0.00 
 146    2:20   0.00   49.3    88    3.1   175     6.9   943.8    0.00 
 146    2:30   0.00   49.3    89    2.9   181     7.2   943.9    0.00 
 146    2:40   0.00   49.2    89    2.2   164     5.3   943.9    0.00 
 146    2:50   0.00   49.2    90    2.4   174     6.7   944.0    0.00 
 146    3:00   0.00   49.1    90    3.4   160     7.4   944.0    0.00 
 146    3:10   0.00   48.8    90    4.4   153     8.1   944.0    0.00 
 146    3:20   0.00   48.8    90    1.4   155     5.4   944.0    0.00 
 146    3:30   0.00   48.8    91    2.7   155     6.1   944.0    0.00 
 146    3:40   0.00   48.8    91    2.8   161     7.2   944.1    0.00 
 146    3:50   0.00   48.7    91    3.7   153     8.0   944.1    0.00 
 146    4:00   0.00   48.6    91    3.7   156     6.9   944.2    0.00 
 146    4:10   0.00   48.5    91    2.6   156     6.1   944.3    0.00 
 146    4:20   0.00   48.5    91    3.9   165     9.1   944.3    0.00 
 146    4:30   0.00   48.4    91    3.2   153     7.1   944.3    0.00 
 146    4:40   0.00   48.4    91    3.0   167     7.0   944.4    0.00 
 146    4:50   0.00   48.3    91    3.3   152     8.3   944.5    0.00 
 146    5:00   0.00   48.4    90    3.5   135     7.2   944.6    0.00 
 146    5:10   0.01   48.3    90    3.1   156     7.2   944.6    0.00 
 146    5:20   0.01   48.3    90    3.8   150     9.1   944.7    0.00 
 146    5:30   0.01   48.3    90    4.3   137     8.8   944.9    0.00 
 146    5:40   0.03   48.3    89    5.1   144    10.4   944.9    0.00 
 146    5:50   0.03   48.4    88    5.4   138    12.0   945.0    0.00 
 146    6:00   0.04   48.5    89    3.5   162     8.6   945.1    0.00 
 146    6:10   0.05   48.8    89    3.2   146     6.1   945.2    0.00 
 146    6:20   0.07   48.8    89    3.6   149     9.6   945.3    0.00 
 146    6:30   0.07   48.9    89    4.0   162     9.1   945.4    0.00 
 146    6:40   0.07   48.9    89    4.2   146     8.4   945.4    0.00 
 146    6:50   0.07   49.1    88    5.1   151    10.3   945.5    0.00 
 146    7:00   0.08   49.3    88    3.2   165     6.1   945.6    0.00 
 146    7:10   0.10   49.5    86    5.2   137     9.8   945.7    0.00 
 146    7:20   0.09   49.7    86    5.2   158    10.7   945.8    0.00 
 146    7:30   0.09   49.7    85    4.9   154    11.0   945.9    0.00 
 146    7:40   0.09   49.7    86    4.2   164     9.6   946.0    0.00 
 146    7:50   0.13   49.7    87    4.8   144     9.9   946.1    0.00 
 146    8:00   0.15   50.0    84    4.4   137    10.2   946.2    0.00 
 146    8:10   0.15   50.0    84    6.3   144    11.3   946.3    0.00 
 146    8:20   0.16   50.0    85    5.3   154     9.2   946.4    0.00 
 146    8:30   0.16   50.3    84    4.6   159     9.2   946.5    0.00 
 146    8:40   0.19   50.8    81    4.9   156     9.8   946.4    0.00 
 146    8:50   0.19   51.1    80    5.9   144    10.2   946.5    0.00 
 146    9:00   0.26   51.7    79    4.8   162     9.8   946.6    0.00 
 146    9:10   0.23   52.0    77    5.0   156    10.0   946.6    0.00 
 146    9:20   0.21   51.9    78    4.7   160    10.7   946.6    0.00 
 146    9:30   0.35   51.7    80    4.5   157    11.5   946.7    0.00 
 146    9:40   0.42   54.0    74    5.2   150    11.4   946.7    0.00 
 146    9:50   0.26   52.6    76    6.5   151    11.2   946.8    0.00 
 146   10:00   0.21   51.9    78    5.5   154    10.3   946.8    0.00 
 146   10:10   0.20   51.8    78    4.9   145     9.3   946.9    0.00 
 146   10:20   0.24   52.0    79    4.7   160     8.8   946.9    0.00 
 146   10:30   0.31   52.9    77    4.7   178     9.8   947.0    0.00 
 146   10:40   0.33   52.8    76    4.7   150     9.6   947.0    0.00 
 146   10:50   0.38   53.7    73    4.1   181     8.6   947.0    0.00 
 146   11:00   0.44   54.7    71    5.0   188    10.4   947.0    0.00 
 146   11:10   0.51   55.5    68    6.1   153    12.9   947.0    0.00 
 146   11:20   0.55   55.7    68    5.1   162     9.2   947.1    0.00 
 146   11:30   0.56   56.5    67    6.0   153    11.7   947.1    0.00 
 146   11:40   0.69   56.8    67    5.2   152    10.0   947.3    0.00 
 146   11:50   1.00   57.8    66    6.0   148    12.7   947.4    0.00 
 146   12:00   0.95   57.2    67    7.1   146    12.8   947.4    0.00 
 146   12:10   0.89   57.2    68    6.2   153    12.1   947.4    0.00 
 146   12:20   0.98   57.7    67    7.1   158    12.6   947.5    0.00 
 146   12:30   0.88   57.9    67    5.3   165    12.0   947.6    0.00 
 146   12:40   0.92   59.0    64    5.2   185    12.1   947.5    0.00 
 146   12:50   0.90   60.0    63    5.5   186    10.6   947.5    0.00 
 146   13:00   0.52   59.5    64    6.0   208    11.5   947.6    0.00 
 146   13:10   0.48   59.9    63    5.4   224    11.5   947.7    0.00 
 146   13:20   0.49   59.9    62    7.0   249    14.0   947.8    0.00 
 146   13:30   0.46   59.5    63    7.1   256    13.6   947.8    0.00 
 146   13:40   0.45   59.3    64    6.1   239    12.8   947.8    0.00 
 146   13:50   0.42   59.5    63    5.9   217    10.3   947.8    0.00 
 146   14:00   0.42   59.8    63    5.5   240     9.9   947.8    0.00 
 146   14:10   0.42   60.3    62    5.7   252     9.9   947.7    0.00 
 146   14:20   0.38   59.6    63    5.9   241     9.1   947.8    0.00 
 146   14:30   0.54   60.3    62    6.5   253    11.4   947.7    0.00 
 146   14:40   0.54   60.9    62    7.4   265    13.4   947.7    0.00 
 146   14:50   0.81   60.9    61    5.0   226    10.4   947.8    0.00 
 146   15:00   0.71   61.6    60    5.6   256    11.2   947.8    0.00 
 146   15:10   0.77   62.6    59    7.2   275    11.8   947.8    0.00 
 146   15:20   0.64   62.7    58    3.9   271     9.4   947.8    0.00 
 146   15:30   0.46   62.0    59    4.5   215     9.1   947.8    0.00 
 146   15:40   0.62   62.8    58    4.5   257    10.8   947.7    0.00 
 146   15:50   0.59   63.5    56    6.1   242    11.5   947.7    0.00 
 146   16:00   0.55   63.0    57    6.0   264     9.9   947.7    0.00 
 146   16:10   0.52   63.3    57    6.8   282    12.5   947.7    0.00 
 146   16:20   0.49   62.0    58    4.7   276     9.4   947.7    0.00 
 146   16:30   0.46   63.1    56    5.3   259     9.2   947.7    0.00 
 146   16:40   0.43   63.5    56    6.2   283    10.2   947.6    0.00 
 146   16:50   0.40   62.2    58    6.3   278    10.0   947.7    0.00 
 146   17:00   0.37   63.0    57    5.3   279     9.7   947.7    0.00 
 146   17:10   0.34   62.3    57    5.3   271     9.6   947.7    0.00 
 146   17:20   0.31   62.7    57    4.8   267     9.4   947.6    0.00 
 146   17:30   0.28   63.2    56    4.4   266     7.5   947.6    0.00 
 146   17:40   0.23   62.7    56    4.2   258     7.2   947.5    0.00 
 146   17:50   0.22   62.4    57    5.1   262     8.3   947.5    0.00 
 146   18:00   0.17   62.3    57    5.1   277     8.0   947.4    0.00 
 146   18:10   0.15   61.6    60    4.9   264     8.0   947.3    0.00 
 146   18:20   0.12   59.8    66    5.6   298     7.9   947.3    0.00 
 146   18:30   0.10   59.3    68    5.5   292     8.5   947.3    0.00 
 146   18:40   0.07   59.0    68    5.2   280     6.9   947.3    0.00 
 146   18:50   0.06   58.4    69    4.2   278     7.3   947.3    0.00 
 146   19:00   0.04   57.7    70    2.3   246     4.2   947.3    0.00 
 146   19:10   0.02   56.4    73    2.2   255     4.0   947.3    0.00 
 146   19:20   0.01   54.7    77    2.0   261     3.4   947.4    0.00 
 146   19:30   0.00   52.9    81    1.0   302     2.7   947.6    0.00 
 146   19:40   0.00   51.1    84    0.8    89     2.0   947.7    0.00 
 146   19:50   0.00   50.1    87    1.1    56     1.8   947.9    0.00 
 146   20:00   0.00   49.4    87    0.7    58     1.6   948.1    0.00 
 146   20:10   0.00   48.7    89    1.3    50     2.4   948.2    0.00 
 146   20:20   0.00   48.3    90    0.4   330     1.3   948.4    0.00 
 146   20:30   0.00   48.0    90    0.0   302     0.3   948.5    0.00 
 146   20:40   0.00   47.6    91    0.0     0     0.0   948.7    0.00 
 146   20:50   0.00   47.4    91    0.0     0     0.0   948.8    0.00 
 146   21:00   0.00   47.5    92    0.1   302     1.2   948.9    0.00 
 146   21:10   0.00   47.9    92    1.4   292     2.3   949.0    0.00 
 146   21:20   0.00   48.3    92    0.3   317     1.5   949.2    0.00 
 146   21:30   0.00   48.8    91    0.1   318     0.9   949.2    0.00 
 146   21:40   0.00   49.0    91    0.3    38     1.1   949.2    0.00 
 146   21:50   0.00   49.2    91    0.3   291     1.2   949.3    0.00 
 146   22:00   0.00   49.4    90    0.0   283     0.7   949.3    0.00 
 146   22:10   0.00   49.7    90    0.1   288     0.9   949.4    0.00 
 146   22:20   0.00   50.2    89    0.0   292     1.1   949.4    0.00 
 146   22:30   0.00   50.4    88    0.2   146     1.1   949.4    0.00 
 146   22:40   0.00   50.6    88    0.0     0     0.0   949.4    0.00 
 146   22:50   0.00   50.7    88    0.0     0     0.0   949.4    0.00 
 146   23:00   0.00   50.8    87    0.4    97     1.0   949.4    0.00 
 146   23:10   0.00   50.7    87    0.6   128     1.5   949.3    0.00 
 146   23:20   0.00   50.7    86    1.4   144     3.1   949.3    0.00 
 146   23:30   0.00   50.5    87    1.4   151     3.1   949.2    0.00 
 146   23:40   0.00   50.3    87    2.2   207     3.5   949.2    0.00 
 146   23:50   0.00   50.3    86    1.7   271     3.6   949.1    0.00 

Return to Blue Oak Ranch Reserve graphs page.


Western Regional Climate Center,wrcc@dri.edu